createdAt,value
2023-01-22T00:01:15.664Z,27.80
2023-01-22T00:03:46.614Z,27.78
2023-01-22T00:06:15.440Z,27.76
2023-01-22T00:08:44.825Z,27.73
2023-01-22T00:11:14.083Z,27.70
2023-01-22T00:13:43.337Z,27.70
2023-01-22T00:16:14.407Z,27.66
2023-01-22T00:18:43.911Z,27.68
2023-01-22T00:21:13.522Z,27.65
2023-01-22T00:23:42.864Z,27.65
2023-01-22T00:26:12.901Z,27.62
2023-01-22T00:28:46.070Z,27.59
2023-01-22T00:31:15.605Z,27.60
2023-01-22T00:33:44.903Z,27.56
2023-01-22T00:36:17.914Z,27.59
2023-01-22T00:39:07.586Z,27.59
2023-01-22T00:41:37.255Z,27.60
2023-01-22T00:44:06.492Z,27.66
2023-01-22T00:46:35.765Z,27.59
2023-01-22T00:49:04.960Z,27.69
2023-01-22T00:51:34.565Z,27.72
2023-01-22T00:54:03.789Z,27.77
2023-01-22T00:56:32.879Z,27.84
2023-01-22T00:59:02.331Z,27.87
2023-01-22T01:01:31.621Z,27.75
2023-01-22T01:04:00.761Z,27.71
2023-01-22T01:06:30.047Z,27.89
2023-01-22T01:08:59.752Z,27.89
2023-01-22T01:11:30.657Z,27.91
2023-01-22T01:13:59.910Z,27.96
2023-01-22T01:16:30.688Z,27.90
2023-01-22T01:19:04.037Z,27.92
2023-01-22T01:21:33.105Z,27.99
2023-01-22T01:24:02.300Z,28.02
2023-01-22T01:26:31.538Z,28.05
2023-01-22T01:29:00.828Z,27.81
2023-01-22T01:31:30.235Z,27.92
2023-01-22T01:34:00.126Z,27.99
2023-01-22T01:36:47.657Z,28.02
2023-01-22T01:38:59.924Z,27.99
2023-01-22T01:41:29.807Z,27.98
2023-01-22T01:44:13.479Z,28.00
2023-01-22T01:47:02.180Z,28.00
2023-01-22T01:49:35.882Z,27.88
2023-01-22T01:52:05.925Z,27.84
2023-01-22T01:54:36.785Z,27.83
2023-01-22T01:57:10.559Z,27.97
2023-01-22T01:59:40.207Z,28.00
2023-01-22T02:02:09.830Z,27.98
2023-01-22T02:04:39.025Z,27.97
2023-01-22T02:07:08.263Z,27.95
2023-01-22T02:09:37.798Z,27.84
2023-01-22T02:12:07.653Z,27.77
2023-01-22T02:14:37.233Z,27.85
2023-01-22T02:17:12.095Z,27.84
2023-01-22T02:19:41.467Z,27.91
2023-01-22T02:22:14.672Z,27.91
2023-01-22T02:27:44.816Z,27.90
2023-01-22T02:30:14.372Z,27.93
2023-01-22T02:32:44.081Z,27.55
2023-01-22T02:35:13.396Z,27.60
2023-01-22T02:37:42.783Z,27.63
2023-01-22T02:40:12.727Z,27.68
2023-01-22T02:42:42.935Z,27.77
2023-01-22T02:45:12.298Z,27.82
2023-01-22T02:47:41.492Z,27.88
2023-01-22T02:50:11.472Z,27.95
2023-01-22T02:52:40.730Z,27.99
2023-01-22T02:55:10.175Z,28.04
2023-01-22T02:57:39.388Z,28.09
2023-01-22T03:00:09.125Z,28.13
2023-01-22T03:02:38.307Z,28.17
2023-01-22T03:05:08.045Z,28.21
2023-01-22T03:07:43.497Z,28.24
2023-01-22T03:10:19.609Z,28.24
2023-01-22T03:13:06.582Z,28.29
2023-01-22T03:15:53.134Z,28.31
2023-01-22T03:18:39.973Z,28.37
2023-01-22T03:21:18.227Z,28.38
2023-01-22T03:23:51.168Z,28.38
2023-01-22T03:26:20.764Z,28.38
2023-01-22T03:28:50.154Z,28.42
2023-01-22T03:31:19.570Z,28.44
2023-01-22T03:33:48.976Z,28.44
2023-01-22T03:36:18.375Z,28.43
2023-01-22T03:38:47.632Z,28.42
2023-01-22T03:41:17.076Z,28.45
2023-01-22T03:43:46.531Z,28.45
2023-01-22T03:46:17.567Z,28.44
2023-01-22T03:48:47.028Z,28.44
2023-01-22T03:51:17.346Z,28.43
2023-01-22T03:53:46.651Z,28.42
2023-01-22T03:56:16.453Z,28.42
2023-01-22T03:58:45.706Z,28.42
2023-01-22T04:01:16.325Z,28.43
2023-01-22T04:03:45.622Z,28.43
2023-01-22T04:06:14.965Z,28.45
2023-01-22T04:08:44.338Z,28.35
2023-01-22T04:11:13.566Z,28.27
2023-01-22T04:13:43.062Z,28.26
2023-01-22T04:16:12.422Z,28.20
2023-01-22T04:18:42.140Z,28.15
2023-01-22T04:21:11.382Z,28.13
2023-01-22T04:23:40.599Z,28.10
2023-01-22T04:26:09.843Z,28.09
2023-01-22T04:28:41.916Z,28.05
2023-01-22T04:31:11.152Z,28.06
2023-01-22T04:33:40.463Z,28.01
2023-01-22T04:36:10.841Z,28.01
2023-01-22T04:38:40.104Z,27.99
2023-01-22T04:41:09.300Z,27.95
2023-01-22T04:43:38.650Z,27.94
2023-01-22T04:46:08.092Z,27.91
2023-01-22T04:48:37.213Z,27.91
2023-01-22T04:51:06.639Z,27.87
2023-01-22T04:53:35.873Z,27.85
2023-01-22T04:56:05.146Z,27.83
2023-01-22T04:58:34.750Z,27.80
2023-01-22T05:01:03.943Z,27.78
2023-01-22T05:03:33.364Z,27.78
2023-01-22T05:06:05.816Z,27.74
2023-01-22T05:08:35.211Z,27.71
2023-01-22T05:11:04.458Z,27.69
2023-01-22T05:13:33.843Z,27.66
2023-01-22T05:16:03.134Z,27.66
2023-01-22T05:18:32.367Z,27.65
2023-01-22T05:21:01.595Z,27.64
2023-01-22T05:23:30.753Z,27.60
2023-01-22T05:26:00.490Z,27.60
2023-01-22T05:28:30.495Z,27.56
2023-01-22T05:31:00.351Z,27.55
2023-01-22T05:33:31.762Z,27.54
2023-01-22T05:36:01.882Z,27.49
2023-01-22T05:38:31.346Z,27.48
2023-01-22T05:41:00.822Z,27.47
2023-01-22T05:43:30.919Z,27.46
2023-01-22T05:46:03.510Z,27.42
2023-01-22T05:48:33.819Z,27.45
2023-01-22T05:51:09.139Z,27.40
2023-01-22T05:53:38.480Z,27.41
2023-01-22T05:56:08.108Z,27.39
2023-01-22T05:58:37.384Z,27.38
2023-01-22T06:01:06.611Z,27.37
2023-01-22T06:03:35.862Z,27.33
2023-01-22T06:06:06.045Z,27.32
2023-01-22T06:08:35.315Z,27.34
2023-01-22T06:11:04.885Z,27.33
2023-01-22T06:13:34.027Z,27.31
2023-01-22T06:16:03.260Z,27.32
2023-01-22T06:18:32.588Z,27.30
2023-01-22T06:21:02.273Z,27.31
2023-01-22T06:23:31.563Z,27.30
2023-01-22T06:26:01.059Z,27.28
2023-01-22T06:28:30.471Z,27.27
2023-01-22T06:31:02.797Z,27.26
2023-01-22T06:33:32.073Z,27.25
2023-01-22T06:36:04.044Z,27.23
2023-01-22T06:38:34.090Z,27.25
2023-01-22T06:41:03.254Z,27.23
2023-01-22T06:43:32.782Z,27.20
2023-01-22T06:46:02.093Z,27.22
2023-01-22T06:48:31.254Z,27.21
2023-01-22T06:51:00.972Z,27.18
2023-01-22T06:53:30.186Z,27.17
2023-01-22T06:56:02.472Z,27.17
2023-01-22T06:58:31.858Z,27.15
2023-01-22T07:01:04.205Z,27.16
2023-01-22T07:03:33.489Z,27.15
2023-01-22T07:06:03.385Z,27.16
2023-01-22T07:08:33.072Z,27.14
2023-01-22T07:11:02.392Z,27.12
2023-01-22T07:13:31.563Z,27.11
2023-01-22T07:16:02.062Z,27.09
2023-01-22T07:18:31.369Z,27.10
2023-01-22T07:21:04.172Z,27.10
2023-01-22T07:23:33.394Z,27.11
2023-01-22T07:26:02.797Z,27.09
2023-01-22T07:28:32.023Z,27.08
2023-01-22T07:31:01.775Z,27.07
2023-01-22T07:33:31.024Z,27.05
2023-01-22T07:36:00.329Z,27.06
2023-01-22T07:38:29.783Z,27.05
2023-01-22T07:41:07.204Z,27.03
2023-01-22T07:43:34.503Z,27.04
2023-01-22T07:46:07.106Z,27.05
2023-01-22T07:48:36.414Z,27.03
2023-01-22T07:51:06.740Z,27.03
2023-01-22T07:53:36.151Z,27.02
2023-01-22T07:56:06.523Z,27.00
2023-01-22T07:58:35.754Z,27.00
2023-01-22T08:01:08.477Z,27.01
2023-01-22T08:03:38.876Z,27.01
2023-01-22T08:06:11.177Z,27.00
2023-01-22T08:08:40.457Z,26.99
2023-01-22T08:11:09.675Z,26.98
2023-01-22T08:13:38.932Z,26.96
2023-01-22T08:16:09.774Z,26.99
2023-01-22T08:18:38.996Z,26.98
2023-01-22T08:21:08.533Z,26.97
2023-01-22T08:23:37.700Z,26.94
2023-01-22T08:26:06.996Z,26.96
2023-01-22T08:28:36.244Z,26.95
2023-01-22T08:31:07.802Z,26.94
2023-01-22T08:33:36.052Z,26.92
2023-01-22T08:36:05.529Z,26.95
2023-01-22T08:38:34.735Z,26.92
2023-01-22T08:41:04.297Z,26.93
2023-01-22T08:43:33.583Z,26.94
2023-01-22T08:46:02.891Z,26.94
2023-01-22T08:48:32.081Z,26.92
2023-01-22T08:51:04.691Z,26.92
2023-01-22T08:53:34.316Z,26.92
2023-01-22T08:56:03.394Z,26.91
2023-01-22T08:58:32.686Z,26.92
2023-01-22T09:01:02.268Z,26.92
2023-01-22T09:03:31.793Z,26.90
2023-01-22T09:06:01.534Z,26.90
2023-01-22T09:08:30.970Z,26.89
2023-01-22T09:11:00.865Z,26.92
2023-01-22T09:13:30.171Z,26.93
2023-01-22T09:15:59.369Z,26.91
2023-01-22T09:18:29.071Z,26.90
2023-01-22T09:21:00.455Z,26.89
2023-01-22T09:23:30.062Z,26.90
2023-01-22T09:26:00.109Z,26.89
2023-01-22T09:28:30.165Z,26.90
2023-01-22T09:30:59.459Z,26.89
2023-01-22T09:33:29.248Z,26.88
2023-01-22T09:36:00.649Z,26.93
2023-01-22T09:38:30.272Z,26.98
2023-01-22T09:41:00.278Z,27.03
2023-01-22T09:45:59.534Z,27.15
2023-01-22T09:48:30.574Z,27.22
2023-01-22T09:51:00.273Z,27.28
2023-01-22T09:53:30.106Z,27.33
2023-01-22T09:56:00.420Z,27.40
2023-01-22T09:58:30.215Z,27.47
2023-01-22T10:01:03.157Z,27.59
2023-01-22T10:03:33.817Z,27.60
2023-01-22T10:06:04.354Z,27.62
2023-01-22T10:08:34.611Z,27.62
2023-01-22T10:11:04.720Z,27.59
2023-01-22T10:13:37.169Z,27.60
2023-01-22T10:16:06.438Z,27.58
2023-01-22T10:18:54.240Z,27.58
2023-01-22T10:21:27.711Z,27.58
2023-01-22T10:23:58.951Z,27.57
2023-01-22T10:26:40.979Z,27.54
2023-01-22T10:29:11.282Z,27.54
2023-01-22T10:31:44.927Z,27.55
2023-01-22T10:34:18.452Z,27.55
2023-01-22T10:36:54.327Z,27.51
2023-01-22T10:39:23.769Z,27.44
2023-01-22T10:41:53.047Z,27.43
2023-01-22T10:44:23.898Z,27.43
2023-01-22T10:46:53.639Z,27.41
2023-01-22T10:49:23.726Z,27.41
2023-01-22T10:51:57.041Z,27.38
2023-01-22T10:54:27.677Z,27.35
2023-01-22T10:56:58.955Z,27.30
2023-01-22T10:59:29.352Z,27.31
2023-01-22T11:02:00.175Z,27.31
2023-01-22T11:04:30.924Z,27.28
2023-01-22T11:07:04.244Z,27.27
2023-01-22T11:09:51.123Z,27.30
2023-01-22T11:12:21.703Z,27.31
2023-01-22T11:14:52.427Z,27.35
2023-01-22T11:17:27.848Z,27.31
2023-01-22T11:19:59.306Z,27.30
2023-01-22T11:22:36.069Z,27.24
2023-01-22T11:25:07.406Z,27.23
2023-01-22T11:27:37.320Z,27.26
2023-01-22T11:30:24.387Z,27.29
2023-01-22T11:32:58.199Z,27.30
2023-01-22T11:35:38.148Z,27.26
2023-01-22T11:38:08.819Z,27.24
2023-01-22T11:40:39.143Z,27.21
2023-01-22T11:43:09.815Z,27.24
2023-01-22T11:45:53.709Z,27.25
2023-01-22T11:48:36.166Z,27.19
2023-01-22T11:51:15.819Z,27.25
2023-01-22T11:53:46.361Z,27.36
2023-01-22T11:56:23.181Z,27.40
2023-01-22T11:58:53.723Z,27.50
2023-01-22T12:01:30.484Z,27.60
2023-01-22T12:04:05.116Z,27.83
2023-01-22T12:06:38.772Z,28.13
2023-01-22T12:09:21.661Z,28.32
2023-01-22T12:12:01.167Z,28.49
2023-01-22T12:14:47.980Z,28.54
2023-01-22T12:17:18.611Z,28.65
2023-01-22T12:19:49.572Z,28.63
2023-01-22T12:22:35.174Z,28.73
2023-01-22T12:25:06.475Z,28.73
2023-01-22T12:27:40.058Z,28.66
2023-01-22T12:30:11.233Z,28.61
2023-01-22T12:32:40.831Z,28.62
2023-01-22T12:35:11.564Z,28.75
2023-01-22T12:37:54.544Z,28.82
2023-01-22T12:40:25.329Z,28.85
2023-01-22T12:42:55.991Z,28.80
2023-01-22T12:45:26.549Z,28.72
2023-01-22T12:48:15.185Z,28.68
2023-01-22T12:50:51.312Z,28.65
2023-01-22T12:53:21.957Z,28.64
2023-01-22T12:56:04.474Z,28.70
2023-01-22T12:58:34.637Z,28.70
2023-01-22T13:01:11.116Z,28.65
2023-01-22T13:03:40.879Z,28.62
2023-01-22T13:06:23.406Z,28.57
2023-01-22T13:08:52.593Z,28.57
2023-01-22T13:11:35.195Z,28.58
2023-01-22T13:14:15.230Z,28.65
2023-01-22T13:16:42.587Z,28.62
2023-01-22T13:19:16.489Z,28.56
2023-01-22T13:21:45.820Z,28.52
2023-01-22T13:24:19.244Z,28.49
2023-01-22T13:26:58.329Z,28.49
2023-01-22T13:29:33.632Z,28.47
2023-01-22T13:32:03.589Z,28.43
2023-01-22T13:34:33.156Z,28.43
2023-01-22T13:37:02.445Z,28.50
2023-01-22T13:39:32.512Z,28.50
2023-01-22T13:42:02.751Z,28.45
2023-01-22T13:44:36.079Z,28.41
2023-01-22T13:47:05.377Z,28.39
2023-01-22T13:49:35.167Z,28.36
2023-01-22T13:52:05.366Z,28.33
2023-01-22T13:54:36.245Z,28.31
2023-01-22T13:57:06.412Z,28.30
2023-01-22T13:59:39.355Z,28.32
2023-01-22T14:02:15.866Z,28.33
2023-01-22T14:04:45.207Z,28.27
2023-01-22T14:07:17.211Z,28.23
2023-01-22T14:09:46.515Z,28.21
2023-01-22T14:12:17.258Z,28.18
2023-01-22T14:14:46.528Z,28.17
2023-01-22T14:17:29.573Z,28.15
2023-01-22T14:20:01.871Z,28.14
2023-01-22T14:22:31.275Z,28.13
2023-01-22T14:25:01.057Z,28.11
2023-01-22T14:27:32.140Z,28.11
2023-01-22T14:30:02.132Z,28.07
2023-01-22T14:32:32.637Z,28.06
2023-01-22T14:35:02.783Z,28.04
2023-01-22T14:37:32.164Z,28.02
2023-01-22T14:40:01.922Z,28.01
2023-01-22T14:42:31.713Z,28.00
2023-01-22T14:45:01.985Z,28.00
2023-01-22T14:47:31.757Z,27.99
2023-01-22T14:50:01.687Z,27.96
2023-01-22T14:52:30.946Z,27.93
2023-01-22T14:55:00.896Z,27.92
2023-01-22T14:57:30.915Z,27.89
2023-01-22T15:00:00.950Z,27.87
2023-01-22T15:02:30.306Z,27.85
2023-01-22T15:05:00.173Z,27.83
2023-01-22T15:07:30.034Z,27.78
2023-01-22T15:10:00.044Z,27.71
2023-01-22T15:12:30.070Z,27.66
2023-01-22T15:15:00.024Z,27.63
2023-01-22T15:17:29.948Z,27.57
2023-01-22T15:20:00.099Z,27.51
2023-01-22T15:22:30.026Z,27.47
2023-01-22T15:24:59.960Z,27.45
2023-01-22T15:27:30.132Z,27.42
2023-01-22T15:30:00.103Z,27.41
2023-01-22T15:32:30.069Z,27.39
2023-01-22T15:35:00.151Z,27.36
2023-01-22T15:37:30.015Z,27.32
2023-01-22T15:39:59.979Z,27.29
2023-01-22T15:42:30.062Z,27.29
2023-01-22T15:44:59.979Z,27.28
2023-01-22T15:47:30.217Z,27.22
2023-01-22T15:50:00.444Z,27.21
2023-01-22T15:52:30.124Z,27.19
2023-01-22T15:55:00.422Z,27.15
2023-01-22T15:57:30.185Z,27.13
2023-01-22T16:00:00.199Z,27.13
2023-01-22T16:02:30.192Z,27.11
2023-01-22T16:05:00.192Z,27.10
2023-01-22T16:07:30.131Z,27.07
2023-01-22T16:10:00.156Z,27.04
2023-01-22T16:12:31.255Z,27.00
2023-01-22T16:15:00.479Z,26.97
2023-01-22T16:17:30.169Z,27.02
2023-01-22T16:20:00.332Z,27.04
2023-01-22T16:22:30.159Z,27.01
2023-01-22T16:25:00.074Z,26.97
2023-01-22T16:27:30.178Z,27.08
2023-01-22T16:30:00.178Z,27.14
2023-01-22T16:32:30.234Z,27.14
2023-01-22T16:35:00.295Z,27.18
2023-01-22T16:37:30.179Z,27.20
2023-01-22T16:40:00.134Z,27.23
2023-01-22T16:42:30.461Z,27.22
2023-01-22T16:45:00.304Z,27.23
2023-01-22T16:47:30.239Z,27.25
2023-01-22T16:50:00.347Z,27.25
2023-01-22T16:52:30.193Z,27.27
2023-01-22T16:55:00.429Z,27.26
2023-01-22T16:57:30.299Z,27.27
2023-01-22T17:00:00.372Z,27.29
2023-01-22T17:02:30.231Z,27.30
2023-01-22T17:05:00.360Z,27.30
2023-01-22T17:07:33.990Z,27.30
2023-01-22T17:10:01.225Z,27.30
2023-01-22T17:12:31.247Z,27.31
2023-01-22T17:15:01.235Z,27.33
2023-01-22T17:17:32.819Z,27.33
2023-01-22T17:20:02.170Z,27.31
2023-01-22T17:22:33.471Z,27.31
2023-01-22T17:25:02.699Z,27.30
2023-01-22T17:27:33.549Z,27.31
2023-01-22T17:30:02.919Z,27.32
2023-01-22T17:32:32.210Z,27.30
2023-01-22T17:35:02.262Z,27.31
2023-01-22T17:37:31.561Z,27.28
2023-01-22T17:40:01.120Z,27.27
2023-01-22T17:42:31.567Z,27.27
2023-01-22T17:45:01.216Z,27.27
2023-01-22T17:47:31.234Z,27.27
2023-01-22T17:50:00.583Z,27.27
2023-01-22T17:52:30.248Z,27.27
2023-01-22T17:55:00.907Z,27.22
2023-01-22T17:57:31.345Z,27.19
2023-01-22T18:00:01.191Z,27.20
2023-01-22T18:02:31.348Z,27.14
2023-01-22T18:05:01.615Z,27.12
2023-01-22T18:07:31.399Z,27.08
2023-01-22T18:10:01.195Z,27.05
2023-01-22T18:12:31.354Z,27.07
2023-01-22T18:15:01.300Z,27.07
2023-01-22T18:17:31.317Z,27.06
2023-01-22T18:20:01.359Z,27.01
2023-01-22T18:22:31.541Z,27.04
2023-01-22T18:25:01.376Z,26.99
2023-01-22T18:27:31.697Z,27.02
2023-01-22T18:30:01.296Z,27.00
2023-01-22T18:32:31.635Z,26.98
2023-01-22T18:35:01.470Z,26.95
2023-01-22T18:37:32.666Z,26.92
2023-01-22T18:40:02.319Z,26.88
2023-01-22T18:42:32.348Z,26.85
2023-01-22T18:45:02.210Z,26.88
2023-01-22T18:47:33.676Z,26.90
2023-01-22T18:50:02.965Z,26.87
2023-01-22T18:52:32.286Z,26.87
2023-01-22T18:55:02.309Z,26.85
2023-01-22T18:57:35.066Z,26.82
2023-01-22T19:00:04.732Z,26.79
2023-01-22T19:02:33.889Z,26.83
2023-01-22T19:05:03.197Z,26.84
2023-01-22T19:07:33.889Z,26.84
2023-01-22T19:10:04.155Z,26.83
2023-01-22T19:12:33.696Z,26.80
2023-01-22T19:15:23.633Z,26.77
2023-01-22T19:17:52.941Z,26.73
2023-01-22T19:20:22.370Z,26.76
2023-01-22T19:22:51.605Z,26.78
2023-01-22T19:25:21.316Z,26.79
2023-01-22T19:27:50.990Z,26.76
2023-01-22T19:30:20.394Z,26.72
2023-01-22T19:32:49.593Z,26.77
2023-01-22T19:35:19.043Z,26.79
2023-01-22T19:37:48.410Z,26.82
2023-01-22T19:40:17.614Z,26.83
2023-01-22T19:42:47.781Z,26.85
2023-01-22T19:45:17.242Z,26.87
2023-01-22T19:47:46.598Z,26.87
2023-01-22T19:50:15.972Z,26.88
2023-01-22T19:52:45.168Z,26.90
2023-01-22T19:55:14.374Z,26.93
2023-01-22T19:57:43.718Z,26.92
2023-01-22T20:00:13.762Z,26.95
2023-01-22T20:02:44.369Z,26.96
2023-01-22T20:05:15.005Z,26.98
2023-01-22T20:07:45.536Z,26.98
2023-01-22T20:10:16.352Z,26.99
2023-01-22T20:12:45.726Z,27.00
2023-01-22T20:15:16.487Z,27.03
2023-01-22T20:17:45.632Z,27.03
2023-01-22T20:20:15.041Z,27.05
2023-01-22T20:22:44.327Z,27.05
2023-01-22T20:25:13.509Z,27.05
2023-01-22T20:27:44.873Z,27.06
2023-01-22T20:30:14.209Z,27.07
2023-01-22T20:32:43.475Z,27.08
2023-01-22T20:35:14.259Z,27.09
2023-01-22T20:37:43.619Z,27.08
2023-01-22T20:40:13.108Z,27.08
2023-01-22T20:42:42.460Z,27.06
2023-01-22T20:45:11.861Z,27.04
2023-01-22T20:47:40.984Z,27.05
2023-01-22T20:50:10.681Z,27.05
2023-01-22T20:52:39.771Z,27.03
2023-01-22T20:55:10.907Z,27.03
2023-01-22T20:57:40.320Z,27.00
2023-01-22T21:00:09.941Z,27.01
2023-01-22T21:02:39.039Z,26.99
2023-01-22T21:05:08.438Z,27.00
2023-01-22T21:07:37.519Z,26.97
2023-01-22T21:10:07.676Z,27.00
2023-01-22T21:12:37.035Z,27.00
2023-01-22T21:15:06.629Z,27.01
2023-01-22T21:17:35.875Z,27.03
2023-01-22T21:20:07.149Z,27.06
2023-01-22T21:22:36.852Z,27.03
2023-01-22T21:25:06.217Z,27.03
2023-01-22T21:27:35.591Z,27.01
2023-01-22T21:30:05.360Z,26.97
2023-01-22T21:32:34.632Z,26.96
2023-01-22T21:35:03.934Z,26.99
2023-01-22T21:37:35.876Z,26.98
2023-01-22T21:40:05.117Z,26.97
2023-01-22T21:42:51.762Z,26.96
2023-01-22T21:45:38.471Z,26.98
2023-01-22T21:48:07.786Z,26.97
2023-01-22T21:50:38.474Z,26.96
2023-01-22T21:53:07.722Z,26.92
2023-01-22T21:55:37.421Z,26.93
2023-01-22T21:58:08.658Z,27.06
2023-01-22T22:00:37.370Z,27.06
2023-01-22T22:03:06.680Z,26.97
2023-01-22T22:05:36.147Z,26.99
2023-01-22T22:08:05.320Z,26.98
2023-01-22T22:10:34.385Z,27.00
2023-01-22T22:13:03.571Z,27.00
2023-01-22T22:15:32.733Z,27.03
2023-01-22T22:18:02.545Z,27.04
2023-01-22T22:20:33.896Z,27.06
2023-01-22T22:23:03.432Z,27.07
2023-01-22T22:25:33.770Z,27.10
2023-01-22T22:28:03.573Z,27.11
2023-01-22T22:30:33.370Z,27.14
2023-01-22T22:33:03.423Z,27.16
2023-01-22T22:35:33.945Z,27.17
2023-01-22T22:38:03.838Z,27.14
2023-01-22T22:40:33.780Z,27.12
2023-01-22T22:43:03.576Z,27.11
2023-01-22T22:45:35.618Z,27.11
2023-01-22T22:48:04.791Z,27.10
2023-01-22T22:50:34.038Z,27.09
2023-01-22T22:53:03.444Z,27.09
2023-01-22T22:55:32.913Z,27.10
2023-01-22T22:58:04.958Z,27.10
2023-01-22T23:00:34.135Z,27.08
2023-01-22T23:03:03.642Z,27.06
2023-01-22T23:05:34.954Z,27.05
2023-01-22T23:08:04.221Z,27.00
2023-01-22T23:10:33.547Z,27.00
2023-01-22T23:13:03.965Z,27.03
2023-01-22T23:15:33.569Z,27.05
2023-01-22T23:18:03.518Z,27.05
2023-01-22T23:20:33.737Z,27.04
2023-01-22T23:23:03.619Z,27.03
2023-01-22T23:25:36.409Z,27.06
2023-01-22T23:28:05.845Z,27.06
2023-01-22T23:30:36.483Z,27.03
2023-01-22T23:33:05.784Z,27.07
2023-01-22T23:35:35.072Z,27.04
2023-01-22T23:38:04.290Z,27.03
2023-01-22T23:40:34.664Z,27.03
2023-01-22T23:43:04.129Z,27.04
2023-01-22T23:45:33.726Z,27.00
2023-01-22T23:48:03.656Z,26.98
2023-01-22T23:50:33.950Z,26.97
2023-01-22T23:53:03.682Z,26.93
2023-01-22T23:55:33.668Z,26.89
2023-01-22T23:58:03.690Z,26.85
